createdAt,value
2022-08-25T00:00:37.877Z,0
2022-08-25T00:10:14.953Z,0
2022-08-25T00:19:51.929Z,0
2022-08-25T00:39:05.967Z,0
2022-08-25T00:58:20.249Z,0
2022-08-25T01:07:58.676Z,0
2022-08-25T01:17:34.858Z,0
2022-08-25T01:27:11.865Z,0
2022-08-25T01:36:48.945Z,0
2022-08-25T01:46:26.016Z,0
2022-08-25T01:56:03.793Z,0
2022-08-25T02:05:40.125Z,0
2022-08-25T02:15:17.494Z,0
2022-08-25T02:24:54.595Z,0
2022-08-25T02:34:31.664Z,0
2022-08-25T02:44:08.849Z,0
2022-08-25T02:53:46.332Z,0
2022-08-25T03:22:38.045Z,0
2022-08-25T03:32:15.085Z,0
2022-08-25T03:41:52.184Z,0
2022-08-25T03:51:29.286Z,0
2022-08-25T04:01:06.001Z,0
2022-08-25T04:10:43.176Z,0
2022-08-25T04:29:57.852Z,0
2022-08-25T04:39:35.225Z,0
2022-08-25T05:08:27.166Z,0
2022-08-25T05:37:20.664Z,0
2022-08-25T05:46:58.744Z,0
2022-08-25T05:56:36.870Z,0
2022-08-25T06:06:15.022Z,0
2022-08-25T06:25:32.687Z,0
2022-08-25T06:35:11.107Z,0
2022-08-25T06:44:49.872Z,0
2022-08-25T07:13:46.716Z,1
2022-08-25T07:23:25.664Z,1
2022-08-25T07:33:06.446Z,1
2022-08-25T08:01:56.874Z,0
2022-08-25T08:21:13.248Z,1
2022-08-25T08:30:53.276Z,1
2022-08-25T08:40:29.771Z,1
2022-08-25T08:50:08.673Z,1
2022-08-25T08:59:48.775Z,1
2022-08-25T09:19:05.523Z,1
2022-08-25T09:57:52.829Z,4
2022-08-25T10:07:42.845Z,5
2022-08-25T10:26:54.889Z,4
2022-08-25T10:46:24.353Z,5
2022-08-25T10:55:58.539Z,4
2022-08-25T11:15:03.412Z,5
2022-08-25T11:24:43.694Z,2
2022-08-25T11:34:20.124Z,3
2022-08-25T11:53:37.653Z,5
2022-08-25T12:13:10.508Z,7
2022-08-25T12:22:50.066Z,6
2022-08-25T12:32:25.179Z,3
2022-08-25T12:41:57.159Z,6
2022-08-25T12:51:41.717Z,3
2022-08-25T13:01:10.232Z,3
2022-08-25T13:10:46.928Z,5
2022-08-25T13:20:39.694Z,6
2022-08-25T13:30:23.204Z,6
2022-08-25T13:40:04.658Z,5
2022-08-25T13:49:31.587Z,4
2022-08-25T14:08:47.488Z,5
2022-08-25T14:18:26.838Z,1
2022-08-25T14:28:07.104Z,3
2022-08-25T14:37:38.926Z,1
2022-08-25T14:47:11.732Z,2
2022-08-25T14:56:52.878Z,2
2022-08-25T15:06:22.972Z,1
2022-08-25T15:44:53.039Z,1
2022-08-25T15:54:22.750Z,1
2022-08-25T16:23:11.094Z,0
2022-08-25T16:32:47.454Z,0
2022-08-25T16:52:00.199Z,0
2022-08-25T17:01:36.293Z,0
2022-08-25T17:11:12.969Z,0
2022-08-25T17:20:51.221Z,0
2022-08-25T17:30:26.728Z,0
2022-08-25T17:40:03.984Z,0
2022-08-25T17:49:40.762Z,0
2022-08-25T17:59:17.959Z,0
2022-08-25T18:18:31.431Z,0
2022-08-25T18:28:08.483Z,0
2022-08-25T18:37:45.044Z,0
2022-08-25T18:47:22.002Z,0
2022-08-25T18:56:58.920Z,0
2022-08-25T19:06:35.689Z,0
2022-08-25T19:16:12.634Z,0
2022-08-25T19:25:51.015Z,0
2022-08-25T19:35:30.429Z,0
2022-08-25T19:45:03.502Z,0
2022-08-25T20:04:18.181Z,0
2022-08-25T20:13:54.628Z,0
2022-08-25T20:23:31.592Z,0
2022-08-25T20:33:08.967Z,0
2022-08-25T20:42:45.975Z,0
2022-08-25T20:52:23.646Z,0
2022-08-25T21:02:00.623Z,0
2022-08-25T21:11:37.866Z,0
2022-08-25T21:30:56.051Z,0
2022-08-25T22:09:23.168Z,0
2022-08-25T22:18:59.718Z,0
2022-08-25T22:28:36.793Z,0
2022-08-25T22:38:14.320Z,0
2022-08-25T22:47:51.605Z,0
2022-08-25T22:57:28.617Z,0
2022-08-25T23:07:07.720Z,0
2022-08-25T23:16:43.815Z,0
2022-08-25T23:35:58.272Z,0
2022-08-25T23:45:35.587Z,0
